createdAt,value
2017-04-06T00:00:22.394Z,11.73
2017-04-06T00:01:21.347Z,11.65
2017-04-06T00:02:21.240Z,11.65
2017-04-06T00:03:21.258Z,11.56
2017-04-06T00:04:21.682Z,11.64
2017-04-06T00:05:21.379Z,11.67
2017-04-06T00:06:16.035Z,11.45
2017-04-06T00:07:26.263Z,11.40
2017-04-06T00:08:17.230Z,11.43
2017-04-06T00:09:21.472Z,11.52
2017-04-06T00:10:21.514Z,11.59
2017-04-06T00:11:21.578Z,11.68
2017-04-06T00:12:21.207Z,11.70
2017-04-06T00:13:21.466Z,11.61
2017-04-06T00:14:21.209Z,11.68
2017-04-06T00:15:20.982Z,11.59
2017-04-06T00:16:21.461Z,11.56
2017-04-06T00:17:21.222Z,11.63
2017-04-06T00:18:22.200Z,11.64
2017-04-06T00:19:21.357Z,11.51
2017-04-06T00:20:21.339Z,11.43
2017-04-06T00:21:21.644Z,11.29
2017-04-06T00:22:21.371Z,11.42
2017-04-06T00:23:21.207Z,11.34
2017-04-06T00:24:21.189Z,11.24
2017-04-06T00:25:21.621Z,11.29
2017-04-06T00:26:21.541Z,11.29
2017-04-06T00:27:21.632Z,11.38
2017-04-06T00:28:21.467Z,11.38
2017-04-06T00:29:21.338Z,11.48
2017-04-06T00:30:21.366Z,11.57
2017-04-06T00:31:21.013Z,11.52
2017-04-06T00:32:21.200Z,11.19
2017-04-06T00:33:21.828Z,11.17
2017-04-06T00:34:21.591Z,11.22
2017-04-06T00:35:21.227Z,11.31
2017-04-06T00:36:21.512Z,11.38
2017-04-06T00:37:21.184Z,11.50
2017-04-06T00:38:22.256Z,11.52
2017-04-06T00:39:26.465Z,11.40
2017-04-06T00:40:20.837Z,11.38
2017-04-06T00:41:20.852Z,11.47
2017-04-06T00:42:22.257Z,11.46
2017-04-06T00:43:20.994Z,11.51
2017-04-06T00:44:20.989Z,11.56
2017-04-06T00:45:21.228Z,11.49
2017-04-06T00:46:22.368Z,11.37
2017-04-06T00:47:21.329Z,11.15
2017-04-06T00:48:21.439Z,11.04
2017-04-06T00:49:21.399Z,11.18
2017-04-06T00:50:21.255Z,11.27
2017-04-06T00:51:21.320Z,11.34
2017-04-06T00:52:21.259Z,11.33
2017-04-06T00:53:22.196Z,11.37
2017-04-06T00:54:21.538Z,11.40
2017-04-06T00:55:21.507Z,11.34
2017-04-06T00:56:21.590Z,11.39
2017-04-06T00:57:21.436Z,11.39
2017-04-06T00:58:21.411Z,11.27
2017-04-06T00:59:27.459Z,11.21
2017-04-06T01:00:21.234Z,11.38
2017-04-06T01:01:21.266Z,11.35
2017-04-06T01:02:21.268Z,11.46
2017-04-06T01:03:21.450Z,11.44
2017-04-06T01:04:21.525Z,11.34
2017-04-06T01:05:20.954Z,11.43
2017-04-06T01:06:21.671Z,11.22
2017-04-06T01:07:21.276Z,11.31
2017-04-06T01:08:21.276Z,11.31
2017-04-06T01:09:21.486Z,11.38
2017-04-06T01:10:22.155Z,11.36
2017-04-06T01:11:21.501Z,11.33
2017-04-06T01:12:21.704Z,11.30
2017-04-06T01:13:21.126Z,11.34
2017-04-06T01:14:21.451Z,11.24
2017-04-06T01:15:21.563Z,11.30
2017-04-06T01:16:16.020Z,11.22
2017-04-06T01:17:21.516Z,11.20
2017-04-06T01:18:21.583Z,11.30
2017-04-06T01:19:27.303Z,11.34
2017-04-06T01:20:21.304Z,11.26
2017-04-06T01:21:21.379Z,11.26
2017-04-06T01:22:21.450Z,11.35
2017-04-06T01:23:21.095Z,11.31
2017-04-06T01:24:23.400Z,11.24
2017-04-06T01:25:21.153Z,11.11
2017-04-06T01:26:21.305Z,11.17
2017-04-06T01:27:21.305Z,11.16
2017-04-06T01:28:21.606Z,11.22
2017-04-06T01:29:21.620Z,11.20
2017-04-06T01:30:21.177Z,11.31
2017-04-06T01:31:21.458Z,11.39
2017-04-06T01:32:21.514Z,11.44
2017-04-06T01:33:21.302Z,11.37
2017-04-06T01:34:16.332Z,11.29
2017-04-06T01:35:21.538Z,11.33
2017-04-06T01:36:22.250Z,11.38
2017-04-06T01:37:21.465Z,11.36
2017-04-06T01:38:22.310Z,11.21
2017-04-06T01:39:18.730Z,11.26
2017-04-06T01:40:22.174Z,11.04
2017-04-06T01:41:21.014Z,10.99
2017-04-06T01:42:16.339Z,10.95
2017-04-06T01:43:21.326Z,11.12
2017-04-06T01:44:21.320Z,11.09
2017-04-06T01:45:21.296Z,11.25
2017-04-06T01:46:16.343Z,11.17
2017-04-06T01:47:21.333Z,11.14
2017-04-06T01:48:20.899Z,11.11
2017-04-06T01:49:16.334Z,11.18
2017-04-06T01:50:21.247Z,11.27
2017-04-06T01:51:21.200Z,11.15
2017-04-06T01:52:21.270Z,11.16
2017-04-06T01:53:21.545Z,11.24
2017-04-06T01:54:21.198Z,11.27
2017-04-06T01:55:21.525Z,11.07
2017-04-06T01:56:21.773Z,11.10
2017-04-06T01:57:21.199Z,11.05
2017-04-06T01:58:21.340Z,10.93
2017-04-06T01:59:26.879Z,10.99
2017-04-06T02:00:25.866Z,11.00
2017-04-06T02:01:21.504Z,10.96
2017-04-06T02:02:16.500Z,10.91
2017-04-06T02:03:21.933Z,11.08
2017-04-06T02:04:16.404Z,11.07
2017-04-06T02:05:22.230Z,11.04
2017-04-06T02:06:16.356Z,11.01
2017-04-06T02:07:22.348Z,10.84
2017-04-06T02:08:21.558Z,10.88
2017-04-06T02:09:21.820Z,10.96
2017-04-06T02:10:18.721Z,11.03
2017-04-06T02:11:21.451Z,11.03
2017-04-06T02:12:21.226Z,11.07
2017-04-06T02:13:21.454Z,10.89
2017-04-06T02:14:21.357Z,10.77
2017-04-06T02:15:18.802Z,10.75
2017-04-06T02:16:21.581Z,10.75
2017-04-06T02:17:21.471Z,10.80
2017-04-06T02:18:16.491Z,10.76
2017-04-06T02:19:21.524Z,10.71
2017-04-06T02:20:16.392Z,10.75
2017-04-06T02:21:20.930Z,10.83
2017-04-06T02:22:21.624Z,10.96
2017-04-06T02:23:21.456Z,10.77
2017-04-06T02:24:22.155Z,10.78
2017-04-06T02:25:19.070Z,10.89
2017-04-06T02:26:21.209Z,11.01
2017-04-06T02:27:21.237Z,11.02
2017-04-06T02:28:22.374Z,11.00
2017-04-06T02:29:21.721Z,11.02
2017-04-06T02:30:12.867Z,10.88
2017-04-06T02:31:21.450Z,10.85
2017-04-06T02:32:21.439Z,10.88
2017-04-06T02:33:21.553Z,10.86
2017-04-06T02:34:21.674Z,10.72
2017-04-06T02:35:21.782Z,10.71
2017-04-06T02:36:22.027Z,10.75
2017-04-06T02:37:16.589Z,10.75
2017-04-06T02:38:21.724Z,10.74
2017-04-06T02:39:21.481Z,10.94
2017-04-06T02:40:16.890Z,10.75
2017-04-06T02:41:21.450Z,10.74
2017-04-06T02:42:21.781Z,10.85
2017-04-06T02:43:21.593Z,10.83
2017-04-06T02:44:21.808Z,10.93
2017-04-06T02:45:19.767Z,10.92
2017-04-06T02:46:22.456Z,10.82
2017-04-06T02:47:26.880Z,10.86
2017-04-06T02:48:21.784Z,10.88
2017-04-06T02:49:21.232Z,10.90
2017-04-06T02:50:16.742Z,10.82
2017-04-06T02:51:21.997Z,10.81
2017-04-06T02:52:16.191Z,10.76
2017-04-06T02:53:21.518Z,10.73
2017-04-06T02:54:21.383Z,10.58
2017-04-06T02:55:21.052Z,10.69
2017-04-06T02:56:21.479Z,10.65
2017-04-06T02:57:21.996Z,10.74
2017-04-06T02:58:22.106Z,10.73
2017-04-06T02:59:22.226Z,10.73
2017-04-06T03:00:21.390Z,10.82
2017-04-06T03:01:21.387Z,10.85
2017-04-06T03:02:21.647Z,10.51
2017-04-06T03:03:21.281Z,10.50
2017-04-06T03:04:21.365Z,10.60
2017-04-06T03:05:21.332Z,10.76
2017-04-06T03:06:21.751Z,10.69
2017-04-06T03:07:21.678Z,10.73
2017-04-06T03:08:21.337Z,10.76
2017-04-06T03:09:21.404Z,10.76
2017-04-06T03:10:21.056Z,10.65
2017-04-06T03:11:21.340Z,10.64
2017-04-06T03:12:26.106Z,10.68
2017-04-06T03:13:21.459Z,10.70
2017-04-06T03:14:16.510Z,10.71
2017-04-06T03:15:19.766Z,10.74
2017-04-06T03:16:22.086Z,10.60
2017-04-06T03:17:21.351Z,10.62
2017-04-06T03:18:21.417Z,10.44
2017-04-06T03:19:21.279Z,10.26
2017-04-06T03:20:16.562Z,10.34
2017-04-06T03:21:21.520Z,10.34
2017-04-06T03:22:21.389Z,10.31
2017-04-06T03:23:21.461Z,10.26
2017-04-06T03:24:16.538Z,10.23
2017-04-06T03:25:16.177Z,10.38
2017-04-06T03:26:21.766Z,10.43
2017-04-06T03:27:21.938Z,10.58
2017-04-06T03:28:21.900Z,10.61
2017-04-06T03:29:16.543Z,10.60
2017-04-06T03:30:16.646Z,10.54
2017-04-06T03:31:21.902Z,10.62
2017-04-06T03:32:21.592Z,10.44
2017-04-06T03:33:21.950Z,10.49
2017-04-06T03:34:21.123Z,10.65
2017-04-06T03:35:16.581Z,10.70
2017-04-06T03:36:21.443Z,10.74
2017-04-06T03:37:21.410Z,10.62
2017-04-06T03:38:21.382Z,10.26
2017-04-06T03:39:21.454Z,10.35
2017-04-06T03:40:21.303Z,10.39
2017-04-06T03:41:21.462Z,10.41
2017-04-06T03:42:21.449Z,10.50
2017-04-06T03:43:16.583Z,10.57
2017-04-06T03:44:16.202Z,10.56
2017-04-06T03:45:16.472Z,10.29
2017-04-06T03:46:21.736Z,10.40
2017-04-06T03:48:16.615Z,10.39
2017-04-06T03:49:16.245Z,10.43
2017-04-06T03:50:21.466Z,10.32
2017-04-06T03:51:21.147Z,10.20
2017-04-06T03:52:21.382Z,10.31
2017-04-06T03:53:21.252Z,10.32
2017-04-06T03:54:16.220Z,10.19
2017-04-06T03:55:21.438Z,10.21
2017-04-06T03:56:21.404Z,10.16
2017-04-06T03:57:16.768Z,10.27
2017-04-06T03:58:21.426Z,10.12
2017-04-06T03:59:21.501Z,10.12
2017-04-06T04:00:21.626Z,10.25
2017-04-06T04:01:21.428Z,10.35
2017-04-06T04:02:21.396Z,10.41
2017-04-06T04:03:21.364Z,10.41
2017-04-06T04:04:21.437Z,10.43
2017-04-06T04:05:21.459Z,10.39
2017-04-06T04:06:21.607Z,10.37
2017-04-06T04:07:17.658Z,10.25
2017-04-06T04:08:21.841Z,10.32
2017-04-06T04:09:26.835Z,10.16
2017-04-06T04:10:21.446Z,10.12
2017-04-06T04:11:21.519Z,10.07
2017-04-06T04:12:27.185Z,10.08
2017-04-06T04:13:21.452Z,10.24
2017-04-06T04:14:21.509Z,10.21
2017-04-06T04:15:21.376Z,10.16
2017-04-06T04:16:21.616Z,10.28
2017-04-06T04:17:21.396Z,10.27
2017-04-06T04:18:21.857Z,10.23
2017-04-06T04:19:26.734Z,10.12
2017-04-06T04:20:21.527Z,10.17
2017-04-06T04:21:21.628Z,10.23
2017-04-06T04:22:21.460Z,10.25
2017-04-06T04:23:22.448Z,10.16
2017-04-06T04:24:21.815Z,10.07
2017-04-06T04:26:22.040Z,10.06
2017-04-06T04:27:21.800Z,9.98
2017-04-06T04:28:21.450Z,10.08
2017-04-06T04:29:21.441Z,10.02
2017-04-06T04:30:21.819Z,9.83
2017-04-06T04:31:21.803Z,9.97
2017-04-06T04:32:21.368Z,9.98
2017-04-06T04:33:21.917Z,10.03
2017-04-06T04:34:21.561Z,10.05
2017-04-06T04:35:21.984Z,9.99
2017-04-06T04:36:21.884Z,10.07
2017-04-06T04:37:22.249Z,10.01
2017-04-06T04:38:21.542Z,9.88
2017-04-06T04:39:21.610Z,9.90
2017-04-06T04:40:21.810Z,9.98
2017-04-06T04:41:21.853Z,10.04
2017-04-06T04:42:21.742Z,10.00
2017-04-06T04:43:16.525Z,10.05
2017-04-06T04:44:21.719Z,9.93
2017-04-06T04:45:21.832Z,9.79
2017-04-06T04:46:21.819Z,9.49
2017-04-06T04:47:21.768Z,9.58
2017-04-06T04:48:26.902Z,9.46
2017-04-06T04:49:21.623Z,9.43
2017-04-06T04:50:21.473Z,9.54
2017-04-06T04:51:21.734Z,9.48
2017-04-06T04:52:21.716Z,9.49
2017-04-06T04:53:21.857Z,9.63
2017-04-06T04:54:27.164Z,9.51
2017-04-06T04:55:21.628Z,9.42
2017-04-06T04:56:21.878Z,9.48
2017-04-06T04:57:21.946Z,9.52
2017-04-06T04:58:21.594Z,9.44
2017-04-06T04:59:21.926Z,9.58
2017-04-06T05:00:21.858Z,9.65
2017-04-06T05:01:26.739Z,9.73
2017-04-06T05:02:21.777Z,9.54
2017-04-06T05:03:21.755Z,9.69
2017-04-06T05:04:16.726Z,9.54
2017-04-06T05:05:21.797Z,9.53
2017-04-06T05:06:22.056Z,9.57
2017-04-06T05:07:21.815Z,9.55
2017-04-06T05:08:21.899Z,9.54
2017-04-06T05:09:21.954Z,9.67
2017-04-06T05:10:21.689Z,9.59
2017-04-06T05:11:21.427Z,9.46
2017-04-06T05:12:21.445Z,9.34
2017-04-06T05:13:21.728Z,9.56
2017-04-06T05:14:21.850Z,9.42
2017-04-06T05:15:21.780Z,9.49
2017-04-06T05:16:21.752Z,9.56
2017-04-06T05:17:22.414Z,9.46
2017-04-06T05:18:26.875Z,9.64
2017-04-06T05:19:16.694Z,9.51
2017-04-06T05:20:21.701Z,9.62
2017-04-06T05:21:22.650Z,9.58
2017-04-06T05:22:21.945Z,9.58
2017-04-06T05:23:21.211Z,9.69
2017-04-06T05:24:21.780Z,9.75
2017-04-06T05:25:21.659Z,9.71
2017-04-06T05:26:21.659Z,9.76
2017-04-06T05:27:21.773Z,9.68
2017-04-06T05:28:16.942Z,9.53
2017-04-06T05:29:21.285Z,9.60
2017-04-06T05:30:21.881Z,9.68
2017-04-06T05:31:22.057Z,9.60
2017-04-06T05:32:16.532Z,9.66
2017-04-06T05:33:21.799Z,9.74
2017-04-06T05:34:21.437Z,9.83
2017-04-06T05:35:21.923Z,9.78
2017-04-06T05:36:21.794Z,9.76
2017-04-06T05:37:21.479Z,9.78
2017-04-06T05:38:21.818Z,9.76
2017-04-06T05:39:21.599Z,9.72
2017-04-06T05:40:21.451Z,9.74
2017-04-06T05:41:22.375Z,9.59
2017-04-06T05:42:21.490Z,9.66
2017-04-06T05:43:21.772Z,9.67
2017-04-06T05:44:21.728Z,9.77
2017-04-06T05:45:21.945Z,9.82
2017-04-06T05:46:22.023Z,9.86
2017-04-06T05:47:21.442Z,9.73
2017-04-06T05:48:21.710Z,9.62
2017-04-06T05:49:21.570Z,9.71
2017-04-06T05:50:21.672Z,9.54
2017-04-06T05:51:21.700Z,9.31
2017-04-06T05:52:21.791Z,9.43
2017-04-06T05:53:21.749Z,9.36
2017-04-06T05:54:21.621Z,9.41
2017-04-06T05:55:21.358Z,9.49
2017-04-06T05:56:21.524Z,9.16
2017-04-06T05:57:21.843Z,9.29
2017-04-06T05:58:21.269Z,9.39
2017-04-06T05:59:22.018Z,9.40
2017-04-06T06:00:21.620Z,9.55
2017-04-06T06:01:23.421Z,9.58
2017-04-06T06:02:21.987Z,9.49
2017-04-06T06:03:21.961Z,9.38
2017-04-06T06:04:21.668Z,9.48
2017-04-06T06:05:21.454Z,9.59
2017-04-06T06:06:21.896Z,9.58
2017-04-06T06:07:21.814Z,9.70
2017-04-06T06:08:16.604Z,9.67
2017-04-06T06:09:22.131Z,9.68
2017-04-06T06:10:16.627Z,9.70
2017-04-06T06:11:16.596Z,9.41
2017-04-06T06:12:22.226Z,9.32
2017-04-06T06:13:21.598Z,9.27
2017-04-06T06:14:21.913Z,9.15
2017-04-06T06:15:26.622Z,9.09
2017-04-06T06:16:21.604Z,9.14
2017-04-06T06:17:21.679Z,9.15
2017-04-06T06:18:27.319Z,9.07
2017-04-06T06:19:21.331Z,9.08
2017-04-06T06:20:21.445Z,9.18
2017-04-06T06:21:26.839Z,9.29
2017-04-06T06:22:21.607Z,9.33
2017-04-06T06:23:21.476Z,9.15
2017-04-06T06:24:21.808Z,9.22
2017-04-06T06:25:21.620Z,9.36
2017-04-06T06:26:21.808Z,9.36
2017-04-06T06:27:21.541Z,9.34
2017-04-06T06:28:26.813Z,9.35
2017-04-06T06:29:21.792Z,9.39
2017-04-06T06:30:21.044Z,9.41
2017-04-06T06:31:21.903Z,9.44
2017-04-06T06:32:21.966Z,9.29
2017-04-06T06:33:21.750Z,9.18
2017-04-06T06:34:21.744Z,9.32
2017-04-06T06:35:21.380Z,9.38
2017-04-06T06:36:22.024Z,8.77
2017-04-06T06:37:21.770Z,8.31
2017-04-06T06:38:21.834Z,8.32
2017-04-06T06:39:22.088Z,8.27
2017-04-06T06:40:26.000Z,8.07
2017-04-06T06:41:22.049Z,8.40
2017-04-06T06:42:21.705Z,8.18
2017-04-06T06:43:27.049Z,8.34
2017-04-06T06:44:21.492Z,8.18
2017-04-06T06:45:21.065Z,8.47
2017-04-06T06:46:22.052Z,8.79
2017-04-06T06:47:21.717Z,9.03
2017-04-06T06:48:27.021Z,9.25
2017-04-06T06:49:21.998Z,9.31
2017-04-06T06:50:21.522Z,9.36
2017-04-06T06:51:21.596Z,9.33
2017-04-06T06:52:18.589Z,9.45
2017-04-06T06:53:21.745Z,9.32
2017-04-06T06:54:21.867Z,9.39
2017-04-06T06:55:21.553Z,9.42
2017-04-06T06:58:21.563Z,9.37
2017-04-06T06:59:18.855Z,9.51
2017-04-06T07:00:16.723Z,9.42
2017-04-06T07:01:26.857Z,9.44
2017-04-06T07:03:26.743Z,9.39
2017-04-06T07:04:27.172Z,9.39
2017-04-06T07:05:22.755Z,9.37
2017-04-06T07:06:21.939Z,9.24
2017-04-06T07:09:21.601Z,9.26
2017-04-06T07:10:21.811Z,9.25
2017-04-06T07:11:21.479Z,9.27
2017-04-06T07:12:21.409Z,9.34
2017-04-06T07:13:21.571Z,9.34
2017-04-06T07:14:16.602Z,9.36
2017-04-06T07:15:21.647Z,9.35
2017-04-06T07:16:16.585Z,9.41
2017-04-06T07:23:36.246Z,9.31
2017-04-06T07:24:21.658Z,9.33
2017-04-06T07:25:21.600Z,9.35
2017-04-06T07:26:21.857Z,9.32
2017-04-06T07:27:22.243Z,9.32
2017-04-06T07:28:22.195Z,9.34
2017-04-06T07:29:21.869Z,9.43
2017-04-06T07:30:21.956Z,9.50
2017-04-06T07:31:22.617Z,9.41
2017-04-06T07:32:21.792Z,9.47
2017-04-06T07:33:21.944Z,9.58
2017-04-06T07:34:16.927Z,9.65
2017-04-06T07:35:21.908Z,9.69
2017-04-06T07:36:21.946Z,9.56
2017-04-06T07:37:21.863Z,9.41
2017-04-06T07:38:21.462Z,9.43
2017-04-06T07:39:21.637Z,9.39
2017-04-06T07:40:21.497Z,9.32
2017-04-06T07:41:21.456Z,9.53
2017-04-06T07:42:21.566Z,9.57
2017-04-06T07:43:21.701Z,9.61
2017-04-06T07:44:21.683Z,9.64
2017-04-06T07:45:21.782Z,9.58
2017-04-06T07:46:21.816Z,9.64
2017-04-06T07:47:21.828Z,9.49
2017-04-06T07:48:21.885Z,9.72
2017-04-06T07:49:27.054Z,9.71
2017-04-06T07:50:21.585Z,9.70
2017-04-06T07:51:22.267Z,9.68
2017-04-06T07:52:22.033Z,9.66
2017-04-06T07:53:16.691Z,9.21
2017-04-06T07:54:22.517Z,9.33
2017-04-06T07:55:16.948Z,9.55
2017-04-06T07:56:27.436Z,9.45
2017-04-06T07:57:21.560Z,9.49
2017-04-06T07:58:26.730Z,9.63
2017-04-06T07:59:21.687Z,9.65
2017-04-06T08:00:21.763Z,9.68
2017-04-06T08:01:21.667Z,9.75
2017-04-06T08:02:21.644Z,9.70
2017-04-06T08:03:21.755Z,9.59
2017-04-06T08:04:21.433Z,9.62
2017-04-06T08:05:21.710Z,9.73
2017-04-06T08:06:21.668Z,9.85
2017-04-06T08:07:26.951Z,9.83
2017-04-06T08:08:21.655Z,9.83
2017-04-06T08:09:27.059Z,10.01
2017-04-06T08:10:21.644Z,10.09
2017-04-06T08:11:27.018Z,10.10
2017-04-06T08:12:21.773Z,10.14
2017-04-06T08:13:29.068Z,10.09
2017-04-06T08:14:21.486Z,10.13
2017-04-06T08:16:21.654Z,9.79
2017-04-06T08:17:21.905Z,9.76
2017-04-06T08:18:21.685Z,9.91
2017-04-06T08:19:21.771Z,9.97
2017-04-06T08:20:21.823Z,9.91
2017-04-06T08:21:27.093Z,10.03
2017-04-06T08:22:22.051Z,10.12
2017-04-06T08:23:17.051Z,10.10
2017-04-06T08:24:21.740Z,10.06
2017-04-06T08:25:27.053Z,10.03
2017-04-06T08:26:22.451Z,10.07
2017-04-06T08:27:21.900Z,10.16
2017-04-06T08:28:21.966Z,9.87
2017-04-06T08:29:21.616Z,10.09
2017-04-06T08:30:21.601Z,10.02
2017-04-06T08:31:21.621Z,10.03
2017-04-06T08:32:22.134Z,10.18
2017-04-06T08:33:27.220Z,10.03
2017-04-06T08:34:21.565Z,10.07
2017-04-06T08:35:21.638Z,10.08
2017-04-06T08:36:22.219Z,9.89
2017-04-06T08:37:21.788Z,9.87
2017-04-06T08:38:21.716Z,10.03
2017-04-06T08:39:21.815Z,10.20
2017-04-06T08:40:21.474Z,10.17
2017-04-06T08:41:22.133Z,10.25
2017-04-06T08:42:21.820Z,10.16
2017-04-06T08:43:21.620Z,10.28
2017-04-06T08:44:21.751Z,10.17
2017-04-06T08:45:26.692Z,10.20
2017-04-06T08:46:21.784Z,10.25
2017-04-06T08:47:16.843Z,10.25
2017-04-06T08:48:22.032Z,10.22
2017-04-06T08:49:21.941Z,10.12
2017-04-06T08:50:22.370Z,10.35
2017-04-06T08:51:16.349Z,10.12
2017-04-06T08:52:21.906Z,9.88
2017-04-06T08:53:18.238Z,10.00
2017-04-06T08:54:22.703Z,10.16
2017-04-06T08:55:21.801Z,9.87
2017-04-06T08:56:21.571Z,10.12
2017-04-06T08:57:21.430Z,10.10
2017-04-06T08:58:21.840Z,9.89
2017-04-06T08:59:21.873Z,9.88
2017-04-06T09:00:21.866Z,10.09
2017-04-06T09:01:27.460Z,10.10
2017-04-06T09:02:21.317Z,9.96
2017-04-06T09:03:22.295Z,10.15
2017-04-06T09:04:21.915Z,10.31
2017-04-06T09:05:21.983Z,10.21
2017-04-06T09:06:21.445Z,10.33
2017-04-06T09:07:21.861Z,10.44
2017-04-06T09:08:27.136Z,10.59
2017-04-06T09:09:22.128Z,10.55
2017-04-06T09:10:21.865Z,10.19
2017-04-06T09:11:22.346Z,10.30
2017-04-06T09:12:21.547Z,10.05
2017-04-06T09:13:26.879Z,10.32
2017-04-06T09:14:21.879Z,10.50
2017-04-06T09:15:27.279Z,10.25
2017-04-06T09:16:22.276Z,10.43
2017-04-06T09:17:22.209Z,10.39
2017-04-06T09:18:22.211Z,10.49
2017-04-06T09:19:27.047Z,10.45
2017-04-06T09:20:22.131Z,10.45
2017-04-06T09:21:22.075Z,10.27
2017-04-06T09:22:21.724Z,10.50
2017-04-06T09:23:22.459Z,10.42
2017-04-06T09:24:27.375Z,10.44
2017-04-06T09:25:21.637Z,10.49
2017-04-06T09:26:21.749Z,10.41
2017-04-06T09:27:21.755Z,10.30
2017-04-06T09:28:21.841Z,10.27
2017-04-06T09:29:21.810Z,10.40
2017-04-06T09:30:26.971Z,10.22
2017-04-06T09:31:21.742Z,10.33
2017-04-06T09:32:21.399Z,10.27
2017-04-06T09:33:21.982Z,9.87
2017-04-06T09:34:22.052Z,9.77
2017-04-06T09:35:22.077Z,9.96
2017-04-06T09:36:27.449Z,10.24
2017-04-06T09:37:21.717Z,10.34
2017-04-06T09:38:21.756Z,10.34
2017-04-06T09:39:21.865Z,10.37
2017-04-06T09:40:26.868Z,10.41
2017-04-06T09:41:22.428Z,10.27
2017-04-06T09:42:22.461Z,10.24
2017-04-06T09:43:16.780Z,10.30
2017-04-06T09:44:21.528Z,10.43
2017-04-06T09:45:26.872Z,10.37
2017-04-06T09:46:21.864Z,10.33
2017-04-06T09:47:21.861Z,10.32
2017-04-06T09:48:21.525Z,10.21
2017-04-06T09:49:27.393Z,10.26
2017-04-06T09:50:22.554Z,10.07
2017-04-06T09:51:21.588Z,10.10
2017-04-06T09:52:21.801Z,10.25
2017-04-06T09:53:26.631Z,10.46
2017-04-06T09:54:21.724Z,10.54
2017-04-06T09:55:26.734Z,10.60
2017-04-06T09:56:21.576Z,10.45
2017-04-06T09:57:22.013Z,10.17
2017-04-06T09:58:22.162Z,10.20
2017-04-06T09:59:21.424Z,10.19
2017-04-06T10:00:21.867Z,9.99
2017-04-06T10:01:21.453Z,10.03
2017-04-06T10:02:22.115Z,10.31
2017-04-06T10:03:21.866Z,10.34
2017-04-06T10:04:27.113Z,10.50
2017-04-06T10:05:22.224Z,10.46
2017-04-06T10:06:21.646Z,10.53
2017-04-06T10:07:26.872Z,10.38
2017-04-06T10:08:21.949Z,10.16
2017-04-06T10:09:21.829Z,10.04
2017-04-06T10:10:22.612Z,10.13
2017-04-06T10:11:21.726Z,10.09
2017-04-06T10:12:22.164Z,10.18
2017-04-06T10:13:21.894Z,10.21
2017-04-06T10:14:27.157Z,10.45
2017-04-06T10:15:27.281Z,10.47
2017-04-06T10:16:22.305Z,10.36
2017-04-06T10:17:22.312Z,10.27
2017-04-06T10:18:21.625Z,10.24
2017-04-06T10:19:27.065Z,10.40
2017-04-06T10:20:22.457Z,10.36
2017-04-06T10:21:21.689Z,10.48
2017-04-06T10:22:21.507Z,10.56
2017-04-06T10:23:22.315Z,10.47
2017-04-06T10:24:22.426Z,10.49
2017-04-06T10:25:18.405Z,10.33
2017-04-06T10:26:22.594Z,10.20
2017-04-06T10:27:16.884Z,10.48
2017-04-06T10:28:21.484Z,10.34
2017-04-06T10:29:22.453Z,10.46
2017-04-06T10:30:21.533Z,10.40
2017-04-06T10:31:26.705Z,10.40
2017-04-06T10:32:21.932Z,10.38
2017-04-06T10:33:27.563Z,10.25
2017-04-06T10:34:21.730Z,10.32
2017-04-06T10:35:22.554Z,10.41
2017-04-06T10:36:26.961Z,10.66
2017-04-06T10:37:27.192Z,10.61
2017-04-06T10:38:22.302Z,10.53
2017-04-06T10:39:22.452Z,10.69
2017-04-06T10:40:21.472Z,10.63
2017-04-06T10:41:21.604Z,10.57
2017-04-06T10:42:21.775Z,10.59
2017-04-06T10:43:21.705Z,10.41
2017-04-06T10:44:21.961Z,10.41
2017-04-06T10:45:21.481Z,10.46
2017-04-06T10:46:27.055Z,10.48
2017-04-06T10:47:21.341Z,10.47
2017-04-06T10:48:22.375Z,10.40
2017-04-06T10:49:21.634Z,10.39
2017-04-06T10:50:21.702Z,10.40
2017-04-06T10:51:21.712Z,10.20
2017-04-06T10:52:21.732Z,10.21
2017-04-06T10:53:27.062Z,10.41
2017-04-06T10:54:21.703Z,10.38
2017-04-06T10:55:25.682Z,10.29
2017-04-06T10:56:27.043Z,10.27
2017-04-06T10:57:21.451Z,10.41
2017-04-06T10:58:21.808Z,10.54
2017-04-06T10:59:27.218Z,10.46
2017-04-06T11:00:22.008Z,10.42
2017-04-06T11:01:21.573Z,10.48
2017-04-06T11:02:27.192Z,10.25
2017-04-06T11:03:21.675Z,10.36
2017-04-06T11:04:26.951Z,10.51
2017-04-06T11:05:21.762Z,10.28
2017-04-06T11:06:21.997Z,10.46
2017-04-06T11:07:26.998Z,10.50
2017-04-06T11:08:27.102Z,10.54
2017-04-06T11:09:27.209Z,10.57
2017-04-06T11:10:27.308Z,10.69
2017-04-06T11:11:21.423Z,10.70
2017-04-06T11:12:21.820Z,10.53
2017-04-06T11:13:21.851Z,10.54
2017-04-06T11:14:26.781Z,10.56
2017-04-06T11:15:21.839Z,10.42
2017-04-06T11:16:21.863Z,10.34
2017-04-06T11:17:26.731Z,10.34
2017-04-06T11:18:27.012Z,10.35
2017-04-06T11:19:17.046Z,10.43
2017-04-06T11:20:26.639Z,10.63
2017-04-06T11:21:21.584Z,10.47
2017-04-06T11:22:27.398Z,10.70
2017-04-06T11:23:22.150Z,10.72
2017-04-06T11:24:21.612Z,10.62
2017-04-06T11:25:26.756Z,10.77
2017-04-06T11:26:26.895Z,10.62
2017-04-06T11:27:21.932Z,10.63
2017-04-06T11:28:26.581Z,10.29
2017-04-06T11:29:21.675Z,10.46
2017-04-06T11:30:26.691Z,10.33
2017-04-06T11:31:21.694Z,10.48
2017-04-06T11:32:17.576Z,10.28
2017-04-06T11:33:26.701Z,10.55
2017-04-06T11:34:22.452Z,10.71
2017-04-06T11:35:21.651Z,10.66
2017-04-06T11:36:27.453Z,10.73
2017-04-06T11:37:21.722Z,10.53
2017-04-06T11:38:26.815Z,10.48
2017-04-06T11:39:26.824Z,10.35
2017-04-06T11:40:27.029Z,10.30
2017-04-06T11:41:27.046Z,10.24
2017-04-06T11:42:22.286Z,10.40
2017-04-06T11:43:21.600Z,10.34
2017-04-06T11:44:21.700Z,10.09
2017-04-06T11:45:26.870Z,10.25
2017-04-06T11:46:21.708Z,10.18
2017-04-06T11:47:21.811Z,10.38
2017-04-06T11:48:26.820Z,10.11
2017-04-06T11:49:27.767Z,10.47
2017-04-06T11:50:17.018Z,10.52
2017-04-06T11:51:22.401Z,10.57
2017-04-06T11:52:22.449Z,10.60
2017-04-06T11:53:22.009Z,10.61
2017-04-06T11:54:21.860Z,10.45
2017-04-06T11:55:26.651Z,10.45
2017-04-06T11:56:21.662Z,10.56
2017-04-06T11:57:26.800Z,10.63
2017-04-06T11:58:27.047Z,10.79
2017-04-06T11:59:21.890Z,10.79
2017-04-06T12:00:22.093Z,10.75
2017-04-06T12:01:27.226Z,10.86
2017-04-06T12:02:27.297Z,10.49
2017-04-06T12:03:21.999Z,10.43
2017-04-06T12:04:22.449Z,10.53
2017-04-06T12:06:26.928Z,10.35
2017-04-06T12:07:21.734Z,10.50
2017-04-06T12:08:27.168Z,10.54
2017-04-06T12:09:21.881Z,10.58
2017-04-06T12:10:22.187Z,10.73
2017-04-06T12:11:21.482Z,10.93
2017-04-06T12:12:22.198Z,10.77
2017-04-06T12:13:22.334Z,10.57
2017-04-06T12:14:27.439Z,10.67
2017-04-06T12:15:22.417Z,10.62
2017-04-06T12:16:21.433Z,10.32
2017-04-06T12:17:21.613Z,10.34
2017-04-06T12:18:22.619Z,10.60
2017-04-06T12:19:27.290Z,10.54
2017-04-06T12:20:27.245Z,10.75
2017-04-06T12:21:27.290Z,10.82
2017-04-06T12:22:21.546Z,10.83
2017-04-06T12:23:26.897Z,10.47
2017-04-06T12:24:22.376Z,10.31
2017-04-06T12:26:22.439Z,10.37
2017-04-06T12:27:21.683Z,10.55
2017-04-06T12:28:21.846Z,10.67
2017-04-06T12:29:16.575Z,10.49
2017-04-06T12:30:21.603Z,10.50
2017-04-06T12:31:21.454Z,10.54
2017-04-06T12:33:17.667Z,10.66
2017-04-06T12:34:22.285Z,10.69
2017-04-06T12:35:17.210Z,10.61
2017-04-06T12:36:26.823Z,10.60
2017-04-06T12:37:26.553Z,10.82
2017-04-06T12:38:26.611Z,11.03
2017-04-06T12:39:22.173Z,11.06
2017-04-06T12:40:26.995Z,10.78
2017-04-06T12:46:21.585Z,10.84
2017-04-06T12:49:26.781Z,10.95
2017-04-06T12:50:27.020Z,10.73
2017-04-06T12:51:27.451Z,10.83
2017-04-06T12:52:22.284Z,10.85
2017-04-06T12:53:22.361Z,10.78
2017-04-06T12:54:22.333Z,10.86
2017-04-06T12:58:22.469Z,10.36
2017-04-06T12:59:21.858Z,10.28
2017-04-06T13:00:21.784Z,10.32
2017-04-06T13:01:27.002Z,10.41
2017-04-06T13:02:17.146Z,10.51
2017-04-06T13:03:22.051Z,10.72
2017-04-06T13:04:27.237Z,10.77
2017-04-06T13:05:27.275Z,10.81
2017-04-06T13:06:21.938Z,10.78
2017-04-06T13:07:26.899Z,10.73
2017-04-06T13:08:26.907Z,10.78
2017-04-06T13:09:27.737Z,10.89
2017-04-06T13:10:21.990Z,10.84
2017-04-06T13:11:22.275Z,10.93
2017-04-06T13:12:22.483Z,10.98
2017-04-06T13:13:26.919Z,10.87
2017-04-06T13:14:26.908Z,10.86
2017-04-06T13:15:26.917Z,10.85
2017-04-06T13:16:22.438Z,10.70
2017-04-06T13:17:26.670Z,10.78
2017-04-06T13:18:27.186Z,10.67
2017-04-06T13:19:27.455Z,10.73
2017-04-06T13:20:26.599Z,10.71
2017-04-06T13:21:27.451Z,10.81
2017-04-06T13:22:21.362Z,11.01
2017-04-06T13:23:27.457Z,11.00
2017-04-06T13:24:21.781Z,10.82
2017-04-06T13:25:26.740Z,10.73
2017-04-06T13:26:26.849Z,10.81